Tiempo atmosférico en la estación meteorológica de Ponferrada, León (534 m.)



Fecha
DESCASC
Temp. máxima en grados centígrados (hora)
DESCASC
Temp. mínima en grados centígrados (hora)
DESCASC
Temp. media en grados centígrados
DESCASC
Racha de viento máxima en m/sg (hora)
DESCASC
Velocidad máxima media en intervalos de 10 minutos(hora)
DESCASC
Precipitaciones diarias en mm
DESCASC
Precipitaciones de 00:00 a 06:00 en mm
DESCASC
Precipitaciones de 06:00 a 12:00 en mm
DESCASC
Precipitaciones de 12:00 a 18:00 en mm
DESCASC
Precipitaciones de 18:00 a 24:00 en mm
DESCASC
18-04-2019 17.2 (17:30) 8.2 (08:30) 12.7 9.17 (14:20) 4.17 (14:20) 3.6 2.6 0 0 1
17-04-2019 19.9 (18:00) 11.7 (23:59) 15.8 12.78 (04:20) 7.22 (04:10) -- -- 0 0 0.2
16-04-2019 21.5 (18:30) 3.4 (00:00) 12.5 6.67 (22:40) 3.89 (22:50) 0 0 0 0 0
15-04-2019 18.6 (13:50) 10.6 (00:00) 14.6 11.11 (13:50) 5.56 (14:00) 7.2 0 5.2 1 1
14-04-2019 23.1 (19:00) 13.2 (00:00) 18.2 4.72 (00:20) 2.5 (15:10) 0 0 0 0 0
13-04-2019 21.6 (16:10) 7 (00:00) 14.3 6.11 (16:20) 3.61 (16:50) 0 0 0 0 0
12-04-2019 21 (19:40) 1.2 (00:00) 11.1 5.56 (16:30) 2.78 (16:30) 0 0 0 0 0
11-04-2019 16.8 (18:50) 1.1 (00:00) 8.9 6.67 (16:50) 3.61 (17:40) 0 0 0 0 0
10-04-2019 15 (17:30) 6.4 (00:00) 10.7 9.44 (13:00) 5.28 (14:00) 1.8 1.2 0.6 0 0
09-04-2019 12.7 (16:50) 4.8 (00:00) 8.8 10 (14:50) 5 (17:00) 12.6 2 7.8 0 2.8
08-04-2019 14.7 (17:50) 5 (00:00) 9.8 9.72 (18:50) 4.17 (18:30) 3.4 3.4 0 0 0
07-04-2019 11.2 (14:30) 1.2 (00:00) 6.2 5.83 (16:00) 2.78 (16:40) 9.6 0 0 1.6 8
06-04-2019 7.9 (19:30) 3.8 (00:00) 5.9 8.33 (16:20) 4.17 (16:20) 9.6 0.8 1.8 6 1
05-04-2019 11.6 (15:10) 2.5 (00:00) 7.1 11.67 (16:20) 5 (17:00) 5.2 5 0 0 0.2
04-04-2019 10 (14:30) 2.1 (00:00) 6 9.44 (15:40) 4.17 (17:10) 4.6 0 0 0 4.6
03-04-2019 10.5 (15:00) 4.3 (00:00) 7.4 10.83 (15:00) 6.39 (12:30) 0.2 0 0 0.2 0
02-04-2019 18.8 (15:50) 4.5 (00:00) 11.6 8.89 (17:20) 5 (18:10) 0 0 0 0 0
01-04-2019 21.4 (18:30) 5.6 (00:00) 13.5 8.89 (04:40) 5.28 (03:20) 0 0 0 0 0
31-03-2019 22.7 (17:00) 5 (00:00) 13.9 13.89 (18:50) 6.94 (18:50) 0 0 0 0 0
30-03-2019 18.7 (16:10) 8.2 (00:00) 13.5 7.5 (13:50) 3.61 (17:50) 0 0 0 0 0
29-03-2019 22.8 (18:10) 3.3 (00:00) 13 5.83 (14:10) 2.78 (14:10) 0 0 0 0 0
28-03-2019 22.5 (15:50) 2.9 (00:00) 12.7 9.17 (13:10) 4.72 (13:10) 0 0 0 0 0
27-03-2019 24.1 (17:10) 1.2 (00:00) 12.7 9.17 (14:10) 5.28 (14:10) 0 0 0 0 0
26-03-2019 21.5 (16:50) 3.9 (00:00) 12.7 12.78 (13:10) 6.94 (11:50) 0 0 0 0 0
25-03-2019 23.1 (15:30) 4.6 (00:00) 13.9 10.28 (21:50) 5.28 (21:50) 0 0 0 0 0
24-03-2019 24.2 (17:10) 3.8 (00:00) 14 7.5 (15:50) 3.33 (15:40) 0 0 0 0 0
23-03-2019 22.5 (17:20) 1.9 (00:00) 12.2 6.39 (18:00) 3.33 (18:00) 0 0 0 0 0
22-03-2019 20.7 (17:40) 1.9 (00:00) 11.3 5 (20:20) 2.78 (20:10) 0 0 0 0 0
21-03-2019 20.4 (17:50) 3.8 (00:00) 12.1 5.56 (23:10) 3.61 (23:10) 0 0 0 0 0

Gráficas

Temp. máximas Temp. mínimas Temp. medias Precipitaciones Rachas de viento máximas Velocidades máximas media en intervalos de 10 minutos

Datos horarios

Fecha y hora oficial Temperatura (ºC) Velocidad del viento (km/h) Dirección del viento Racha (km/h) Dirección de racha Precipitación (mm) Presión (hPa) Tendencia (hPa) Humedad (%)
2019-04-19 23:00:00 12.3 4 Este 8 Este 0 959.4 2.2 68
2019-04-19 22:00:00 14.2 4 Sudeste 9 Sudeste 0 958.7 1.9 62
2019-04-19 21:00:00 16.7 3 Sudeste 17 Este 0 958 1.5 58
2019-04-19 20:00:00 17.9 8 Este 15 Este 0 957.2 1.1 54
2019-04-19 19:00:00 17.6 11 Sudeste 28 Sudeste 0 956.8 0.9 51
2019-04-19 18:00:00 17.4 14 Este 35 Sur 0 956.5 0.4 54
2019-04-19 17:00:00 17.9 17 Sudeste 33 Sudeste 0 956.1 0.4 51
2019-04-19 16:00:00 17.9 14 Sudeste 30 Este 0 955.9 0.1 52
2019-04-19 15:00:00 16.7 12 Este 32 Sudeste 0 956.1 0.5 56
2019-04-19 14:00:00 16 15 Sudeste 32 Este 0 955.7 0.7 59
2019-04-19 13:00:00 14.6 17 Sudeste 32 Este 0 955.8 1.3 62
2019-04-19 12:00:00 13.2 12 Sudeste 32 Sudeste 0 955.6 1.7 71
2019-04-19 11:00:00 12.6 10 Este 21 Este 0 955 1.8 76
2019-04-19 10:00:00 11.5 13 Este 25 Este 0 954.5 2 79
2019-04-19 09:00:00 10.6 14 Este 28 Este 0 953.9 1.8 85
2019-04-19 08:00:00 10 12 Este 22 Este 0.2 953.2 0.9 88
2019-04-19 07:00:00 9.4 3 Nordeste 6 Sudeste 0.2 952.5 0 94
2019-04-19 06:00:00 9.5 2 Sudeste 6 Sudeste 0.2 952.1 -0.7 94
2019-04-19 05:00:00 9.6 2 Sudoeste 6 Norte 0.4 952.3 -0.6 91
2019-04-19 04:00:00 9.7 4 Nordeste 8 Este 0.8 952.5 -0.6 91
2019-04-19 03:00:00 9.9 2 Este 7 Sudeste 0.4 952.8 -0.5 92
2019-04-19 02:00:00 10 3 Este 9 Sudeste 0.2 952.9 -0.4 92
2019-04-19 01:00:00 10.3 3 Este 5 Este 0.2 953.1 0 90
2019-04-19 00:00:00 10.5 0 Calma 5 Oeste 0 953.3 1.1 90
2019-04-18 23:00:00 10.7 2 Sudeste 5 Este 0 953.3 2.2 86
2019-04-18 22:00:00 10.8 3 Nordeste 10 Este 0.2 953.1 3 85
2019-04-18 21:00:00 11.4 7 Este 23 Este 0.8 952.2 2.5 79
2019-04-18 20:00:00 13.3 13 Este 27 Este 0 951.1 1.2 68
2019-04-18 19:00:00 16.4 7 Nordeste 16 Nordeste 0 950.1 -0.3 52
2019-04-18 18:00:00 16.8 8 Oeste 12 Oeste 0 949.7 -1.2 47
2019-04-18 17:00:00 16.6 5 Sudeste 10 Sur 0 949.9 -0.9 50
2019-04-18 16:00:00 16.2 5 Sur 13 Sudeste 0 950.4 -0.9 49
2019-04-18 15:00:00 14.8 4 Sudeste 33 Sudeste 0 950.9 -0.3 63
2019-04-18 14:00:00 15.4 9 Nordeste 24 Oeste 0 950.8 -0.6 53
2019-04-18 13:00:00 14.5 8 Oeste 14 Noroeste 0 951.3 0.4 66
2019-04-18 12:00:00 13.1 7 Oeste 13 Oeste 0 951.2 0.5 74
2019-04-18 11:00:00 11.4 4 Sudoeste 9 Sudoeste 0 951.4 1.4 80
2019-04-18 10:00:00 10.1 3 Sudoeste 8 Sur 0 950.9 1.6 87
2019-04-18 09:00:00 8.5 2 Sudoeste 5 Sudeste 0 950.7 1.7 93
2019-04-18 08:00:00 8.3 3 Oeste 6 Oeste 0 950 1.1 92
2019-04-18 07:00:00 8.4 2 Este 10 Sur 0 949.3 0.7 92
2019-04-18 06:00:00 8.7 6 Sudeste 13 Este 0 949 0.1 91
2019-04-18 05:00:00 8.9 6 Este 11 Este 0 948.9 0.5 90
2019-04-18 04:00:00 9.5 3 Este 6 Norte 1 948.6 0.9 89
2019-04-18 03:00:00 10.2 2 Noroeste 11 Oeste 1.6 948.9 1.8 87
2019-04-18 02:00:00 10.8 4 Oeste 14 Noroeste 0 948.4 1.9 83
2019-04-18 01:00:00 11.5 8 Noroeste 15 Noroeste 0 947.7 1.9 78
2019-04-18 00:00:00 11.7 6 Nordeste 16 Nordeste 0.2 947.1 1.3 82
2019-04-17 23:00:00 12.3 6 Oeste 13 Oeste 0 946.5 1.6 85
2019-04-17 22:00:00 12.5 9 Este 24 Este 0 945.8 2.4 81
2019-04-17 21:00:00 12.9 9 Oeste 23 Oeste 0 945.8 2.6 80
2019-04-17 20:00:00 18 15 Sur 33 Sur 0 944.9 1.4 45
2019-04-17 19:00:00 19.5 12 Sur 37 Sudoeste 0 943.4 -1.1 36
2019-04-17 18:00:00 19.9 15 Sudeste 39 Sudeste 0 943.2 -2 34
2019-04-17 17:00:00 19.1 10 Sur 28 Sur 0 943.5 -2.4 35
2019-04-17 16:00:00 18.5 14 Sudeste 36 Sur 0 944.5 -2.2 36
2019-04-17 15:00:00 18.1 4 Norte 24 Este 0 945.2 -1.2 40
2019-04-17 14:00:00 17.8 7 Este 22 Este 0 945.9 -0.5 44
2019-04-17 13:00:00 17.1 3 Sudoeste 16 Oeste 0 946.7 0.2 45
2019-04-17 12:00:00 17 3 Oeste 19 Este 0 946.4 0.1 46
2019-04-17 11:00:00 15.6 13 Este 26 Este 0 946.4 0.3 49
2019-04-17 10:00:00 14.4 14 Este 32 Este 0 946.5 0.4 51
2019-04-17 09:00:00 13.6 18 Este 31 Este 0 946.3 0.4 51
2019-04-17 08:00:00 13 9 Este 21 Este 0 946.1 -0.2 51
2019-04-17 07:00:00 13.1 9 Sudeste 37 Este 0 946.1 0 51
2019-04-17 06:00:00 13.5 24 Este 41 Este 0 945.9 -1.3 49
2019-04-17 05:00:00 14.1 17 Este 46 Este 0 946.3 -1.9 46
2019-04-17 04:00:00 14.4 25 Este -- -- -- 946.1 -2.6 44
2019-04-17 03:00:00 14.9 18 Este 38 Este 0 947.2 -2.3 42
2019-04-17 02:00:00 14.3 6 Sudeste 34 Este 0 948.2 -1.5 44
2019-04-17 01:00:00 15 18 Este 30 Este 0 948.7 -1.2 42
2019-04-17 00:00:00 15.7 9 Este 20 Este 0 949.5 -0.5 40
2019-04-16 23:00:00 16.5 12 Nordeste 24 Este 0 949.7 -0.1 37
2019-04-16 22:00:00 16.6 8 Este 18 Sudeste 0 949.9 -0.1 37
2019-04-16 21:00:00 18.3 8 Sudeste 22 Sudeste 0 950 -0.5 35
2019-04-16 20:00:00 20.2 11 Sudeste 23 Sudeste 0 949.8 -1.4 28
2019-04-16 19:00:00 21.2 7 Oeste 14 Oeste 0 950 -2 29
2019-04-16 18:00:00 21.1 7 Oeste 18 Sudoeste 0 950.5 -2.3 30
2019-04-16 17:00:00 20.1 5 Noroeste 16 Nordeste 0 951.2 -2.6 30
2019-04-16 16:00:00 19.2 13 Nordeste 24 Este 0 952 -2.4 35
2019-04-16 15:00:00 18.8 11 Nordeste 21 Nordeste 0 952.8 -2.7 39
2019-04-16 14:00:00 16.2 7 Oeste 14 Sudoeste 0 953.8 -2.2 51
2019-04-16 13:00:00 13.1 6 Oeste 15 Oeste 0 954.4 -2.3 66
2019-04-16 12:00:00 10.6 5 Noroeste 13 Noroeste 0 955.5 -1.2 75
2019-04-16 11:00:00 7.9 7 Oeste 13 Noroeste 0 956 -0.2 83
2019-04-16 10:00:00 5.3 2 Sudoeste 8 Sudoeste 0 956.7 0 94
2019-04-16 09:00:00 4.5 4 Oeste 8 Noroeste 0 956.7 0.1 92
2019-04-16 08:00:00 3.4 2 Este 5 Este 0 956.2 0 94
2019-04-16 07:00:00 3.8 0 Calma 5 Norte 0 956.7 0.7 94
2019-04-16 06:00:00 4.2 0 Calma 4 Este 0 956.6 0.3 92
2019-04-16 05:00:00 5.2 3 Oeste 6 Sudeste 0 956.2 0 91
2019-04-16 04:00:00 5.7 4 Sudeste 8 Sudeste 0 956 0.1 89
2019-04-16 03:00:00 6.7 3 Nordeste 7 Sur 0 956.3 0.7 88
2019-04-16 02:00:00 7.9 0 Calma 4 Sudeste 0 956.2 1.1 84
2019-04-16 01:00:00 9.8 2 Noroeste 9 Noroeste 0 955.9 1.8 75
2019-04-16 00:00:00 10.6 6 Oeste 13 Noroeste 0 955.6 2.6 71
2019-04-15 23:00:00 11 6 Oeste 12 Noroeste 0 955.1 3.1 72
2019-04-15 22:00:00 11.2 5 Oeste 19 Noroeste 0 954.1 2.9 73
2019-04-15 21:00:00 12.3 7 Noroeste 24 Oeste 0 953 2.4 68
2019-04-15 20:00:00 13.8 10 Oeste 19 Noroeste 0 952 2.2 65
2019-04-15 19:00:00 13.6 11 Oeste 25 Noroeste 1 951.2 0.9 78
2019-04-15 18:00:00 13.3 13 Noroeste 24 Oeste 0 950.6 0.5 74
2019-04-15 17:00:00 13.6 6 Noroeste 14 Noroeste 0 949.8 1.3 68
2019-04-15 16:00:00 12.1 4 Sudoeste 30 Sudoeste 1 950.3 2.7 84
2019-04-15 15:00:00 13.1 13 Oeste 33 Sudoeste 0 950.1 2.2 77
2019-04-15 14:00:00 15.9 20 Oeste 40 Sudoeste 0 948.5 1.2 66
2019-04-15 13:00:00 17.4 10 Oeste 24 Oeste 0 947.6 0.4 53
2019-04-15 12:00:00 15.8 5 Noroeste 19 Oeste 0 947.9 1.2 71
2019-04-15 11:00:00 13.5 4 Noroeste 12 Oeste 4.6 947.3 0.2 94
2019-04-15 10:00:00 12.9 5 Noroeste 14 Oeste 0.6 947.2 -0.5 89
2019-04-15 09:00:00 14.7 7 Oeste 15 Oeste 0 946.7 -1.5 76
2019-04-15 08:00:00 13.5 5 Oeste 10 Sur 0 947.1 -2 80
2019-04-15 07:00:00 13.4 3 Este 8 Noroeste 0 947.7 -2.1 81
2019-04-15 06:00:00 13.7 3 Oeste 9 Oeste 0 948.2 -2.4 80
2019-04-15 05:00:00 14.2 4 Norte 8 Oeste 0 949.1 -2.1 76
2019-04-15 04:00:00 14.7 5 Sur 18 Sudeste 0 949.8 -1.8 73
2019-04-15 03:00:00 15.1 4 Sudeste 13 Este 0 950.6 -1.4 72
2019-04-15 02:00:00 15 4 Sudeste 10 Sur 0 951.2 -0.9 74
2019-04-15 01:00:00 15.5 4 Sur 8 Sudeste 0 951.6 -0.3 72
2019-04-15 00:00:00 15.9 4 Sur 8 Sudeste 0 952 0.2 68
2019-04-14 23:00:00 16.4 4 Este 7 Sudeste 0 952.1 0.5 68
2019-04-14 22:00:00 17.6 2 Este 6 Oeste 0 951.9 0.2 63
2019-04-14 21:00:00 19.9 5 Oeste 15 Sudoeste 0 951.8 -0.4 54
2019-04-14 20:00:00 22 3 Sudeste 9 Sudeste 0 951.6 -1.4 45
2019-04-14 19:00:00 23 4 Noroeste 12 Sudeste 0 951.7 -2.4 41
2019-04-14 18:00:00 22.5 4 Noroeste 14 Noroeste 0 952.2 -2.3 43
2019-04-14 17:00:00 22.1 7 Oeste 17 Noroeste 0 953 -1.9 43
2019-04-14 16:00:00 21.5 8 Oeste 15 Norte 0 954.1 -1.2 49
2019-04-14 15:00:00 20 7 Noroeste 14 Noroeste 0 954.5 -1.1 55
2019-04-14 14:00:00 19.6 5 Oeste 13 Noroeste 0 954.9 -0.5 56
2019-04-14 13:00:00 18.3 4 Sudoeste 13 Noroeste 0 955.3 0 64
2019-04-14 12:00:00 17.1 3 Oeste 13 Noroeste 0 955.6 0.1 68
2019-04-14 11:00:00 16.1 3 Oeste 7 Noroeste 0 955.4 0.2 71
2019-04-14 10:00:00 14.5 2 Sur 5 Este 0 955.3 0.4 77
2019-04-14 09:00:00 13.7 2 Sudeste 6 Nordeste 0 955.5 0.4 80
2019-04-14 08:00:00 13.3 3 Este 7 Sudeste 0 955.2 -0.2 81
2019-04-14 07:00:00 13.5 4 Sudeste 6 Sudeste 0 954.9 -0.8 81
2019-04-14 06:00:00 13.8 3 Nordeste 5 Nordeste 0 955.1 -0.9 79
2019-04-14 05:00:00 13.9 0 Calma 5 Noroeste 0 955.4 -1 79
2019-04-14 04:00:00 14.1 0 Calma 8 Noroeste 0 955.7 -0.8 77
2019-04-14 03:00:00 14.4 4 Noroeste 8 Noroeste 0 956 -0.6 76
2019-04-14 02:00:00 14.7 3 Noroeste 11 Oeste 0 956.4 0.2 73
2019-04-14 01:00:00 15 4 Oeste 17 Oeste 0 956.5 0.7 71
2019-04-14 00:00:00 15.7 8 Oeste 16 Noroeste 0 956.6 1.7 65
2019-04-13 23:00:00 16.6 6 Oeste 13 Oeste 0 956.2 1.7 56
2019-04-13 22:00:00 17.5 8 Oeste 17 Noroeste 0 955.8 1.6 49
2019-04-13 21:00:00 18.6 7 Oeste 19 Oeste 0 954.9 0.6 44
2019-04-13 20:00:00 20 10 Oeste 21 Oeste 0 954.5 0.1 38
2019-04-13 19:00:00 21.3 10 Oeste 18 Noroeste 0 954.2 -0.5 33
2019-04-13 18:00:00 21.2 7 Oeste 18 Oeste 0 954.3 -0.8 32
2019-04-13 17:00:00 20.7 10 Oeste 22 Oeste 0 954.4 -1.3 30
2019-04-13 16:00:00 21.3 10 Oeste 17 Oeste 0 954.7 -1.5 29
2019-04-13 15:00:00 20.3 8 Oeste 16 Noroeste 0 955.1 -1.9 29
2019-04-13 14:00:00 19.1 5 Noroeste 12 Oeste 0 955.7 -1.5 34
2019-04-13 13:00:00 17.1 4 Sur 11 Oeste 0 956.2 -1.3 40
2019-04-13 12:00:00 14.4 5 Noroeste 10 Oeste 0 957 -0.5 49
2019-04-13 11:00:00 12 4 Oeste 7 Oeste 0 957.2 0 56
2019-04-13 10:00:00 9.5 3 Norte 9 Este 0 957.5 0.5 66
2019-04-13 09:00:00 7.2 3 Este 5 Noroeste 0 957.5 0.7 77
2019-04-13 08:00:00 7.2 3 Noroeste 6 Sudeste 0 957.2 0.5 73
2019-04-13 07:00:00 7.3 5 Sudeste 8 Sudeste 0 957 0.2 71
2019-04-13 06:00:00 7.6 0 Calma 4 Norte 0 956.8 -0.3 73
2019-04-13 05:00:00 7.9 2 Oeste 6 Sur 0 956.7 -0.1 72
2019-04-13 04:00:00 8.5 3 Sur 7 Sur 0 956.8 -0.1 68
2019-04-13 03:00:00 9.4 2 Sur 9 Sur 0 957.1 0.8 63
2019-04-13 02:00:00 10 0 Calma 11 Sudeste 0 956.8 0.8 63
2019-04-13 01:00:00 10.3 6 Sur 11 Sur 0 956.9 1.5 62
2019-04-13 00:00:00 10.5 3 Sudeste 7 Sudeste 0 956.3 1.7 60
2019-04-12 23:00:00 12 3 Este 6 Este 0 956 1.6 54
2019-04-12 22:00:00 14.8 3 Sur 10 Oeste 0 955.4 0.8 44
2019-04-12 21:00:00 18.1 5 Oeste 14 Noroeste 0 954.6 -0.2 31
2019-04-12 20:00:00 20.6 3 Nordeste 10 Oeste 0 954.4 -0.8 22
2019-04-12 19:00:00 20.5 5 Noroeste 12 Noroeste 0 954.6 -1.7 20
2019-04-12 18:00:00 20.3 6 Oeste 13 Noroeste 0 954.8 -2.1 14
2019-04-12 17:00:00 19.2 4 Oeste 20 Noroeste 0 955.2 -2.4 24
2019-04-12 16:00:00 18.3 4 Noroeste 17 Noroeste 0 956.3 -1.8 32
2019-04-12 15:00:00 16.6 7 Noroeste 14 Oeste 0 956.9 -2 39
2019-04-12 14:00:00 15 6 Noroeste 16 Oeste 0 957.6 -1.4 43
2019-04-12 13:00:00 13.1 4 Noroeste 12 Oeste 0 958.1 -1.1 53
2019-04-12 12:00:00 9.9 4 Noroeste 12 Oeste 0 958.9 -0.3 64
2019-04-12 11:00:00 7.8 4 Oeste 11 Oeste 0 959 0.2 71
2019-04-12 10:00:00 5.6 0 Calma 6 Noroeste 0 959.2 0.9 77
2019-04-12 09:00:00 2.8 3 Noroeste 6 Norte 0 959.2 0.7 89
2019-04-12 08:00:00 1.2 3 Este 5 Este 0 958.8 0.3 91
2019-04-12 07:00:00 1.6 2 Este 3 Este 0 958.3 -0.2 91
2019-04-12 06:00:00 2.4 0 Calma 5 Sudeste 0 958.5 -0.1 88
2019-04-12 05:00:00 2.9 0 Calma 4 Este 0 958.5 0 87
2019-04-12 04:00:00 3.9 2 Sudeste 5 Sur 0 958.5 0 84
2019-04-12 03:00:00 5 3 Sur 5 Sudoeste 0 958.6 0.1 81
2019-04-12 02:00:00 6.4 3 Sur 8 Sur 0 958.5 0.4 75
2019-04-12 01:00:00 6.5 4 Sudeste 8 Sudeste 0 958.5 0.7 76
2019-04-12 00:00:00 7.2 3 Sudeste 5 Sudeste 0 958.5 1.2 72
2019-04-11 23:00:00 8.6 3 Este 5 Este 0 958.1 1.2 64
2019-04-11 22:00:00 11.6 3 Noroeste 10 Nordeste 0 957.8 0.9 51
2019-04-11 21:00:00 13.7 3 Nordeste 14 Norte 0 957.3 0.3 46
2019-04-11 20:00:00 16 8 Noroeste 17 Oeste 0 956.9 -0.1 39
2019-04-11 19:00:00 16.8 8 Oeste 22 Oeste 0 956.9 -0.6 35
2019-04-11 18:00:00 16.5 9 Oeste 24 Norte 0 957 -0.9 39
2019-04-11 17:00:00 15.6 6 Noroeste 24 Oeste 0 957 -1.3 38
2019-04-11 16:00:00 15.2 5 Noroeste 15 Noroeste 0 957.5 -1.3 38
2019-04-11 15:00:00 14.2 4 Noroeste 13 Oeste 0 957.9 -1.4 38
2019-04-11 14:00:00 14 7 Oeste 14 Noroeste 0 958.3 -1.2 40
2019-04-11 13:00:00 12 6 Oeste 14 Oeste 0 958.8 -0.5 52
2019-04-11 12:00:00 9.6 3 Oeste 9 Oeste 0 959.3 0.1 66
2019-04-11 11:00:00 7 5 Noroeste 9 Noroeste 0 959.5 0.6 74
2019-04-11 10:00:00 5.7 2 Sudeste 6 Norte 0 959.3 0.7 79
2019-04-11 09:00:00 2.8 0 Calma 3 Este 0 959.2 0.6 95
2019-04-11 08:00:00 1.2 2 Este 5 Norte 0 958.9 0.5 92
2019-04-11 07:00:00 1.8 0 Calma 6 Sudeste 0 958.6 0.3 93
2019-04-11 06:00:00 2.2 0 Calma 4 Este 0 958.6 0.2 92
2019-04-11 05:00:00 3.1 2 Noroeste 6 Noroeste 0 958.4 0 89
2019-04-11 04:00:00 3.5 3 Sudeste 6 Sur 0 958.3 0 90
2019-04-11 03:00:00 4 3 Sur 5 Sur 0 958.4 0.2 89
2019-04-11 02:00:00 4.6 3 Sudeste 7 Sudeste 0 958.4 0.5 86
2019-04-11 01:00:00 5.3 3 Este 5 Este 0 958.3 1.2 84
2019-04-11 00:00:00 6.4 4 Sudeste 9 Este 0 958.2 2.1 79
2019-04-10 23:00:00 7.9 4 Norte 8 Nordeste 0 957.9 2.6 69
2019-04-10 22:00:00 9.9 2 Oeste 12 Norte 0 957.1 2.4 57
2019-04-10 21:00:00 11 4 Norte 22 Norte 0 956.1 2 54
2019-04-10 20:00:00 12.5 9 Norte 25 Nordeste 0 955.3 1.4 49
2019-04-10 19:00:00 14.2 8 Noroeste 24 Norte 0 954.7 0.8 47
2019-04-10 18:00:00 15 9 Norte 34 Nordeste 0 954.1 0.7 46
2019-04-10 17:00:00 14.3 8 Norte 26 Norte 0 953.9 0.5 48
2019-04-10 16:00:00 13.7 9 Norte 32 Noroeste 0 953.9 0.5 61
2019-04-10 15:00:00 13.8 12 Oeste 31 Oeste 0 953.4 0.2 54
2019-04-10 14:00:00 12.1 19 Oeste 33 Oeste 0 953.4 0.3 64
2019-04-10 13:00:00 11.6 18 Oeste 34 Noroeste 0 953.4 0.6 67
2019-04-10 12:00:00 10.6 12 Oeste 33 Oeste 0 953.2 0.8 70
2019-04-10 11:00:00 9.1 12 Oeste 30 Sudoeste 0 953.1 1.3 78
2019-04-10 10:00:00 7.6 8 Oeste 19 Noroeste 0 952.8 1.5 83
2019-04-10 09:00:00 7.1 12 Oeste 22 Oeste 0.2 952.4 1.3 84
2019-04-10 08:00:00 6.9 10 Oeste 23 Sudoeste 0.4 951.8 0.4 84
2019-04-10 07:00:00 7.4 10 Oeste 25 Oeste 0 951.3 -0.2 76
2019-04-10 06:00:00 7.3 11 Oeste 23 Noroeste 0 951.1 -0.9 77
2019-04-10 05:00:00 7.4 8 Oeste 23 Sudoeste 0 951.4 -0.5 74
2019-04-10 04:00:00 6.9 6 Sudoeste 21 Sudoeste 0 951.5 -0.1 83
2019-04-10 03:00:00 7.2 10 Oeste 19 Oeste 0.2 952 0.3 82
2019-04-10 02:00:00 6.9 6 Oeste 17 Oeste 0.2 951.9 0.4 91
2019-04-10 01:00:00 7.1 5 Noroeste 15 Oeste 0.8 951.6 0.6 89
2019-04-10 00:00:00 7 7 Oeste 15 Noroeste 0.6 951.7 1.5 89
2019-04-09 23:00:00 7.2 5 Oeste 19 Sudoeste 1 951.5 1.8 89
2019-04-09 22:00:00 7.7 6 Oeste 19 Oeste 0.4 951 1.4 86
2019-04-09 21:00:00 8.6 10 Oeste 25 Oeste 0.6 950.2 1 83
2019-04-09 20:00:00 9.5 9 Oeste 27 Oeste 0 949.7 0.6 73
2019-04-09 19:00:00 9.6 10 Oeste 29 Oeste 0.2 949.6 0.1 75
2019-04-09 18:00:00 11.4 15 Oeste 30 Noroeste 0 949.2 -0.6 61
2019-04-09 17:00:00 12.3 18 Oeste 32 Sudoeste 0 949.1 -0.6 52
2019-04-09 16:00:00 11.7 9 Oeste 33 Sur 0 949.5 -0.5 57
2019-04-09 15:00:00 9.7 13 Oeste 36 Oeste 0 949.8 -0.1 70
2019-04-09 14:00:00 9.9 10 Oeste 19 Noroeste 0 949.7 -0.2 70
2019-04-09 13:00:00 8.5 6 Oeste 12 Oeste 0 950 0.2 72
2019-04-09 12:00:00 6.7 3 Noroeste 8 Oeste 0 949.9 0.6 82
2019-04-09 11:00:00 5.7 2 Sur 8 Sudeste 0 949.9 1.7 88
2019-04-09 10:00:00 4.9 2 Este 9 Nordeste 1 949.8 1.5 89
2019-04-09 09:00:00 5.2 3 Nordeste 8 Este 1.2 949.3 1.1 89
2019-04-09 08:00:00 5.6 4 Nordeste 17 Noroeste 3.6 948.2 -0.3 88
2019-04-09 07:00:00 6.1 5 Norte 10 Nordeste 2 948.3 -0.4 91
2019-04-09 06:00:00 6.7 3 Norte 6 Noroeste 1 948.2 -0.7 87
2019-04-09 05:00:00 7 3 Noroeste 5 Noroeste 1 948.5 -0.5 87
2019-04-09 04:00:00 7.5 0 Calma 6 Este 0 948.7 -0.5 78
2019-04-09 03:00:00 7.6 2 Sudeste 10 Oeste 0 948.9 -0.5 79
2019-04-09 02:00:00 8.3 5 Noroeste 14 Noroeste 0 949 -0.4 73
2019-04-09 01:00:00 9.1 5 Noroeste 14 Oeste 0 949.2 0.5 64
2019-04-09 00:00:00 9.2 7 Oeste 16 Oeste 0 949.4 1 60
2019-04-08 23:00:00 10.3 8 Oeste 19 Noroeste 0 949.4 1.1 51
2019-04-08 22:00:00 10.9 7 Oeste 21 Sudoeste 0 948.7 0.3 46
2019-04-08 21:00:00 12 5 Sudoeste 18 Oeste 0 948.4 0.2 43
2019-04-08 20:00:00 13.7 9 Oeste 28 Oeste 0 948.3 -0.5 41
2019-04-08 19:00:00 14.6 9 Oeste 35 Oeste 0 948.4 -0.8 39
2019-04-08 18:00:00 14.2 8 Noroeste 21 Oeste 0 948.2 -1.5 44
2019-04-08 17:00:00 14 9 Oeste 23 Sudoeste 0 948.8 -1.2 47
2019-04-08 16:00:00 14.2 7 Oeste 18 Sudoeste 0 949.2 -1.1 40
2019-04-08 15:00:00 13.8 8 Sudoeste 23 Oeste 0 949.7 -0.8 47
2019-04-08 14:00:00 11.8 9 Oeste 17 Noroeste 0 950 -0.3 53
2019-04-08 13:00:00 10.6 6 Noroeste 15 Oeste 0 950.3 0.3 66
2019-04-08 12:00:00 9.4 4 Oeste 14 Oeste 0 950.5 0.6 78
2019-04-08 11:00:00 8.2 3 Sudoeste 10 Oeste 0 950.3 1.1 84
2019-04-08 10:00:00 7.2 5 Este 9 Este 0 950 1.1 91
2019-04-08 09:00:00 5.6 0 Calma 8 Nordeste 0 949.9 1.4 97
2019-04-08 08:00:00 5.5 2 Norte 6 Sudeste 0 949.2 0.9 96
2019-04-08 07:00:00 5.6 2 Este 5 Este 0 948.9 0.8 96
2019-04-08 06:00:00 5.6 3 Sudoeste 4 Sudoeste 0.4 948.5 0.3 96
2019-04-08 05:00:00 5.3 0 Calma 5 Norte 0 948.3 0.3 96
2019-04-08 04:00:00 5.3 3 Este 5 Este 0 948.1 0.4 96
2019-04-08 03:00:00 5.1 4 Oeste 9 Oeste 1 948.2 0.3 96
2019-04-08 02:00:00 5 6 Oeste 18 Sudoeste 1 948 -0.3 96
2019-04-08 01:00:00 5 6 Oeste 9 Oeste 1 947.7 -0.7 96
2019-04-08 00:00:00 5.2 4 Oeste 9 Sudoeste 1.6 947.9 -0.1 95
2019-04-07 23:00:00 5.6 2 Sur 10 Oeste 1.4 948.3 0.3 94
2019-04-07 22:00:00 6.1 4 Oeste 8 Oeste 1 948.4 0.3 92
2019-04-07 21:00:00 6.4 4 Oeste 10 Oeste 0.6 948 0 92
2019-04-07 20:00:00 6.5 3 Norte 12 Noroeste 1.6 948 -0.2 91
2019-04-07 19:00:00 7 4 Norte 13 Nordeste 1.8 948.1 0 87
2019-04-07 18:00:00 7.7 6 Nordeste 12 Oeste 1 948 0.2 84
2019-04-07 17:00:00 7.9 9 Oeste 19 Noroeste 0.6 948.2 0.2 79
2019-04-07 16:00:00 10.1 10 Oeste 21 Noroeste 0 948.1 -0.3 66
2019-04-07 15:00:00 11 4 Sudeste 18 Sur 0 947.8 -0.5 51
2019-04-07 14:00:00 10.5 6 Sudeste 13 Sudeste 0 948 -0.3 55
2019-04-07 13:00:00 9.4 5 Nordeste 13 Nordeste 0 948.4 0.5 62
2019-04-07 12:00:00 7.7 6 Nordeste 10 Norte 0 948.3 0.6 71
2019-04-07 11:00:00 6.1 2 Noroeste 9 Noroeste 0 948.3 1.3 82
2019-04-07 10:00:00 5.2 3 Nordeste 8 Norte 0 947.9 1.4 86
2019-04-07 09:00:00 1.8 0 Calma 5 Sur 0 947.7 1.9 96
2019-04-07 08:00:00 1.5 3 Sudeste 5 Sudeste 0 947 1.7 94
2019-04-07 07:00:00 2.3 3 Nordeste 8 Noroeste 0 946.5 1.6 91
2019-04-07 06:00:00 3 3 Norte 9 Noroeste 0 945.8 1.1 88
2019-04-07 05:00:00 3.7 5 Oeste 14 Noroeste 0 945.3 1.1 88
2019-04-07 04:00:00 3.3 4 Noroeste 8 Noroeste 0 944.9 1 90
2019-04-07 03:00:00 3.1 3 Norte 9 Nordeste 0 944.7 1.1 90
2019-04-07 02:00:00 3.5 5 Oeste 13 Noroeste 0 944.2 1.1 88
2019-04-07 01:00:00 4.1 9 Oeste 20 Noroeste 0 943.9 1.4 85
2019-04-07 00:00:00 4.5 9 Oeste 21 Oeste 0 943.6 1.5 87
2019-04-06 23:00:00 4.7 9 Oeste 22 Oeste 0 943.1 1.5 85
2019-04-06 22:00:00 5.2 7 Oeste 23 Oeste 0 942.5 1.4 82
2019-04-06 21:00:00 4.8 5 Oeste 26 Sudoeste 0.8 942.1 1.9 84
2019-04-06 20:00:00 6.8 7 Oeste 21 Oeste 0 941.6 2.1 75
2019-04-06 19:00:00 6.9 7 Oeste 21 Oeste 0.2 941.1 2.3 77
2019-04-06 18:00:00 6.2 11 Oeste 25 Oeste 1.6 940.2 1.9 87
2019-04-06 17:00:00 5.9 12 Oeste 30 Oeste 1 939.5 1.9 88
2019-04-06 16:00:00 6.7 10 Oeste 24 Noroeste 0.6 938.8 1.4 83
2019-04-06 15:00:00 6.4 8 Noroeste 22 Oeste 1.4 938.3 1 89
2019-04-06 14:00:00 6.2 9 Noroeste 25 Noroeste 0.8 937.6 0.8 87
2019-04-06 13:00:00 5.9 8 Noroeste 17 Noroeste 0.6 937.4 1 86
2019-04-06 12:00:00 5.5 6 Noroeste 17 Noroeste 0.2 937.3 1.2 85
2019-04-06 11:00:00 4.7 4 Oeste 10 Noroeste 0.8 936.8 0.8 87
2019-04-06 10:00:00 4.6 4 Noroeste 7 Noroeste 0.4 936.4 -0.3 90
2019-04-06 09:00:00 4.1 4 Sudoeste 11 Este 0 936.1 -0.7 92
2019-04-06 08:00:00 3.8 3 Este 10 Este 0 936 -1.4 90
2019-04-06 07:00:00 4.4 2 Sudeste 5 Noroeste 0.4 936.7 -0.9 88
2019-04-06 06:00:00 4.5 3 Nordeste 5 Este 0.6 936.8 -1.6 89
2019-04-06 05:00:00 4.7 0 Calma 7 Nordeste 0.2 937.4 -0.9 85
2019-04-06 04:00:00 5 3 Nordeste 11 Nordeste 0 937.6 -1.3 84
2019-04-06 03:00:00 5.3 6 Noroeste 12 Oeste 0 938.4 -0.4 82
2019-04-06 02:00:00 5.8 6 Oeste 13 Oeste 0 938.3 -0.3 75
2019-04-06 01:00:00 5.8 3 Oeste 12 Sudoeste 0 938.9 0.8 77
2019-04-06 00:00:00 5.9 6 Oeste 15 Sudoeste 0 938.8 1.4 75
2019-04-05 23:00:00 5.9 7 Oeste 14 Oeste 0 938.6 1.6 76
2019-04-05 22:00:00 6.3 7 Oeste 16 Oeste 0 938.1 1.6 75
2019-04-05 21:00:00 6.5 6 Oeste 13 Sudoeste 0 937.4 1 77
2019-04-05 20:00:00 7.1 7 Sudoeste 23 Sudoeste 0 937 1.6 75
2019-04-05 19:00:00 9.1 10 Oeste 21 Noroeste 0.2 936.5 1 64
2019-04-05 18:00:00 7.7 15 Oeste 29 Oeste 0 936.4 1 73
2019-04-05 17:00:00 10.7 18 Oeste 42 Sudoeste 0 935.4 -0.3 46
2019-04-05 16:00:00 10.8 15 Oeste 33 Oeste 0 935.5 -0.6 43
2019-04-05 15:00:00 11 10 Sudoeste 24 Noroeste 0 935.4 -1 40
2019-04-05 14:00:00 9.8 9 Oeste 23 Oeste 0 935.7 -0.6 46
2019-04-05 13:00:00 8.9 9 Oeste 22 Oeste 0 936.1 0.3 49
2019-04-05 12:00:00 7.5 4 Noroeste 13 Sudoeste 0 936.4 1 63
2019-04-05 11:00:00 6.9 4 Oeste 9 Oeste 0 936.3 1.3 73
2019-04-05 10:00:00 5.6 4 Norte 12 Nordeste 0 935.8 1 82
2019-04-05 09:00:00 2.9 4 Noroeste 8 Noroeste 0 935.4 0.5 94
2019-04-05 08:00:00 2.8 3 Este 5 Sudeste 0 935 0.2 93
2019-04-05 07:00:00 3.2 2 Este 5 Este 0 934.8 0 93
2019-04-05 06:00:00 3.4 2 Sudeste 8 Oeste 1.2 934.9 -0.5 94
2019-04-05 05:00:00 3.6 3 Nordeste 8 Sudeste 0 934.8 -0.4 93
2019-04-05 04:00:00 3.4 3 Este 9 Sudoeste 0.4 934.8 -0.6 94
2019-04-05 03:00:00 3.5 6 Oeste 10 Noroeste 0.4 935.4 -0.1 93
2019-04-05 02:00:00 3.8 7 Oeste 10 Noroeste 0.2 935.2 -0.9 92
2019-04-05 01:00:00 4.7 7 Noroeste 11 Noroeste 2.8 935.4 -1.1 91
2019-04-05 00:00:00 5.1 0 Calma 12 Este 2.2 935.5 -1.3 91
2019-04-04 23:00:00 5 7 Este 17 Este 1 936.1 -1.4 90
2019-04-04 22:00:00 4.9 10 Este 19 Este 0.6 936.5 -1.5 88
2019-04-04 21:00:00 5 13 Este 21 Este 0.6 936.8 -1.9 87
2019-04-04 20:00:00 5.4 12 Este 22 Este 0.2 937.5 -1.5 85
2019-04-04 19:00:00 7.2 6 Este 18 Este 0 938 -1.4 79
2019-04-04 18:00:00 7.7 8 Oeste 33 Oeste 0 938.7 -1.4 69
2019-04-04 17:00:00 8.9 14 Oeste 26 Noroeste 0 939 -1.9 58
2019-04-04 16:00:00 8.9 3 Noroeste 34 Oeste 0 939.4 -2.7 55
2019-04-04 15:00:00 9.8 13 Oeste 24 Oeste 0 940.1 -2.9 45
2019-04-04 14:00:00 9.6 13 Oeste 27 Noroeste 0 940.9 -2.4 45
2019-04-04 13:00:00 8.9 13 Oeste 30 Noroeste 0 942.1 -1.6 46
2019-04-04 12:00:00 8.2 13 Oeste 29 Oeste 0 943 -0.8 53
2019-04-04 11:00:00 6.1 12 Oeste 23 Oeste 0 943.3 -0.2 66
2019-04-04 10:00:00 4.4 8 Oeste 14 Noroeste 0 943.7 -0.1 75
2019-04-04 09:00:00 3.2 6 Noroeste 16 Oeste 0 943.8 -0.1 80
2019-04-04 08:00:00 3.2 7 Oeste 16 Oeste 0 943.5 -0.9 80
2019-04-04 07:00:00 2.5 4 Oeste 10 Noroeste 0 943.8 -1 80
2019-04-04 06:00:00 2.7 4 Oeste 14 Sudoeste 0 943.9 -1.8 75
2019-04-04 05:00:00 3 6 Oeste 21 Noroeste 0 944.4 -2.1 74
2019-04-04 04:00:00 3.4 8 Oeste 24 Oeste 0 944.8 -2.1 70
2019-04-04 03:00:00 4.1 10 Oeste 22 Oeste 0 945.7 -1.6 65
2019-04-04 02:00:00 4.4 8 Oeste 19 Oeste 0 946.5 -1 66
2019-04-04 01:00:00 4.4 7 Oeste 23 Oeste 0 946.9 -0.4 69
2019-04-04 00:00:00 4.3 7 Oeste 22 Oeste 0 947.3 0.4 73
2019-04-03 23:00:00 4.4 7 Oeste 22 Noroeste 0 947.5 0.5 69
2019-04-03 22:00:00 4.6 9 Oeste 18 Noroeste 0 947.3 0.4 69
2019-04-03 21:00:00 5.2 9 Oeste 24 Noroeste 0 946.9 0.1 71
2019-04-03 20:00:00 6.8 9 Noroeste 24 Noroeste 0 947 0 60
2019-04-03 19:00:00 7.7 15 Noroeste 31 Noroeste 0 946.9 -0.6 55
2019-04-03 18:00:00 7.5 7 Oeste 34 Noroeste 0 946.8 -0.8 58
2019-04-03 17:00:00 9.3 10 Noroeste 25 Oeste 0 947 -1.1 47
2019-04-03 16:00:00 7.8 12 Noroeste 34 Noroeste 0.2 947.5 -1 59
2019-04-03 15:00:00 9.4 22 Oeste 39 Oeste 0 947.6 -1.6 56
2019-04-03 14:00:00 9.1 13 Oeste 39 Noroeste 0 948.1 -1.3 54
2019-04-03 13:00:00 8.5 19 Oeste 39 Oeste 0 948.5 -1.1 59
2019-04-03 12:00:00 7.6 19 Oeste 36 Oeste 0 949.2 -0.5 57
2019-04-03 11:00:00 7.5 16 Oeste 31 Noroeste 0 949.4 -0.5 55
2019-04-03 10:00:00 6.3 15 Oeste 27 Noroeste 0 949.6 -0.4 66
2019-04-03 09:00:00 5.8 14 Oeste 27 Oeste 0 949.7 -0.7 66
2019-04-03 08:00:00 4.9 6 Oeste 19 Oeste 0 949.9 -1 72
2019-04-03 07:00:00 5.3 11 Oeste 21 Noroeste 0 950 -1.5 73
2019-04-03 06:00:00 5.7 14 Oeste 30 Noroeste 0 950.4 -1.5 71
2019-04-03 05:00:00 6.2 10 Oeste 24 Noroeste 0 950.9 -1.4 67
2019-04-03 04:00:00 7.1 9 Noroeste 28 Noroeste 0 951.5 -1.2 65
2019-04-03 03:00:00 7.7 12 Noroeste 27 Noroeste 0 951.9 -0.9 67
2019-04-03 02:00:00 8.7 10 Oeste 21 Oeste 0 952.3 -0.3 65
2019-04-03 01:00:00 8.9 6 Oeste 18 Noroeste 0 952.7 0.3 64
2019-04-03 00:00:00 9.9 9 Oeste 17 Noroeste 0 952.8 1 61
2019-04-02 23:00:00 10.7 6 Oeste 16 Sudoeste 0 952.6 1 59
2019-04-02 22:00:00 11.7 8 Oeste 18 Oeste 0 952.4 1 55
2019-04-02 21:00:00 13 9 Noroeste 24 Noroeste 0 951.8 0.2 46
2019-04-02 20:00:00 15.1 11 Noroeste 30 Noroeste 0 951.6 0 41
2019-04-02 19:00:00 16.2 14 Noroeste 32 Noroeste 0 951.4 -0.6 36
2019-04-02 18:00:00 17.4 13 Noroeste 32 Oeste 0 951.6 -1.2 34
2019-04-02 17:00:00 18 13 Noroeste 30 Oeste 0 951.6 -2 34
2019-04-02 16:00:00 17.9 14 Oeste 30 Oeste 0 952 -2.4 26
2019-04-02 15:00:00 17.7 8 Oeste 21 Oeste 0 952.8 -2.3 31
2019-04-02 14:00:00 15.9 10 Oeste 18 Oeste 0 953.6 -1.7 36
2019-04-02 13:00:00 13.8 7 Oeste 13 Oeste 0 954.4 -0.8 49
2019-04-02 12:00:00 11.9 6 Sudoeste 12 Sudoeste 0 955.1 0.1 54
2019-04-02 11:00:00 9.1 5 Oeste 11 Noroeste 0 955.3 0.8 64
2019-04-02 10:00:00 7.2 4 Oeste 7 Oeste 0 955.2 1.2 68
2019-04-02 09:00:00 4.9 4 Noroeste 7 Sudeste 0 955 0.9 80
2019-04-02 08:00:00 4.6 4 Sudeste 7 Sudeste 0 954.5 0.6 80
2019-04-02 07:00:00 5.4 3 Noroeste 5 Norte 0 954 0.4 78
2019-04-02 06:00:00 5.8 3 Sudeste 8 Sudeste 0 954.1 0.5 77
2019-04-02 05:00:00 6.8 4 Sur 9 Sudeste 0 953.9 0.2 72
2019-04-02 04:00:00 7.4 3 Sudeste 8 Sur 0 953.6 0.2 70
2019-04-02 03:00:00 8.4 2 Sudeste 7 Sudoeste 0 953.6 0.6 65
2019-04-02 02:00:00 9.7 3 Este 5 Norte 0 953.7 1.2 60
2019-04-02 01:00:00 11.5 5 Oeste 12 Oeste 0 953.4 1.7 55
2019-04-02 00:00:00 12.9 4 Oeste 14 Noroeste 0 953 2.5 49
2019-04-01 23:00:00 14 5 Oeste 14 Noroeste 0 952.5 3 47
2019-04-01 22:00:00 15 9 Oeste 13 Oeste 0 951.7 2.7 38
2019-04-01 21:00:00 17.2 3 Noroeste 19 Nordeste 0 950.5 1.4 32
2019-04-01 20:00:00 19.7 13 Noroeste 23 Oeste 0 949.5 0.2 27
2019-04-01 19:00:00 21 8 Oeste 19 Sudoeste 0 949 -0.8 20
2019-04-01 18:00:00 21.1 8 Sudoeste 20 Sudoeste 0 949.1 -1.3 22
2019-04-01 17:00:00 20.3 4 Norte 18 Noroeste 0 949.3 -1.9 25
2019-04-01 16:00:00 20.8 6 Noroeste 20 Noroeste 0 949.8 -2.1 27
2019-04-01 15:00:00 20 5 Oeste 16 Oeste 0 950.4 -2 28
2019-04-01 14:00:00 18 5 Sudoeste 15 Sudoeste 0 951.2 -1.3 33
2019-04-01 13:00:00 16.1 5 Oeste 13 Oeste 0 951.9 -0.3 43
2019-04-01 12:00:00 13.3 4 Sudoeste 10 Oeste 0 952.4 0.4 52
2019-04-01 11:00:00 11 4 Oeste 9 Oeste 0 952.5 1 59
2019-04-01 10:00:00 10.1 2 Sudoeste 5 Sudeste 0 952.2 0.9 60
2019-04-01 09:00:00 6.3 3 Este 4 Este 0 952 1 79
2019-04-01 08:00:00 5.9 3 Este 5 Sudoeste 0 951.5 0.6 77
2019-04-01 07:00:00 7.7 4 Sudeste 11 Este 0 951.3 0.3 70
2019-04-01 06:00:00 8.9 0 Calma 25 Nordeste 0 951 0 65
2019-04-01 05:00:00 10.9 16 Este 32 Nordeste 0 950.9 -0.1 60
2019-04-01 04:00:00 11.2 18 Este 30 Este 0 951 0.1 57
2019-04-01 03:00:00 12.1 15 Este 24 Este 0 951 0.4 52
2019-04-01 02:00:00 12.7 9 Este 20 Este 0 951 0.6 46
2019-04-01 01:00:00 12.4 4 Sudeste 8 Sudeste 0 950.9 1.2 46
2019-04-01 00:00:00 13.8 5 Sudeste 11 Norte 0 950.6 1.4 41
2019-03-31 23:00:00 14.3 2 Norte 16 Este 0 950.4 1.9 42
2019-03-31 22:00:00 14.8 10 Este 17 Este 0 949.7 1.2 40
2019-03-31 21:00:00 16.6 12 Este 22 Sudeste 0 949.2 0.8 34
2019-03-31 20:00:00 18.2 7 Este 21 Nordeste 0 948.5 -0.1 28
2019-03-31 19:00:00 19 12 Este 50 Sudeste 0 948.5 -0.6 23
2019-03-31 18:00:00 19.2 14 Este 30 Este 0 948.4 -1.5 26
2019-03-31 17:00:00 22.5 10 Sur 22 Sudoeste 0 948.6 -2.1 15
2019-03-31 16:00:00 21.4 7 Sudeste 25 Sudeste 0 949.1 -2.5 17
2019-03-31 15:00:00 20 3 Sur 14 Este 0 949.9 -2.6 21
2019-03-31 14:00:00 18.8 8 Oeste 16 Sudoeste 0 950.7 -2.2 32
2019-03-31 13:00:00 17 8 Oeste 13 Noroeste 0 951.6 -1.4 36
2019-03-31 12:00:00 13.6 5 Oeste 13 Oeste 0 952.5 -0.4 49
2019-03-31 11:00:00 10.8 4 Oeste 9 Sudoeste 0 952.9 0.4 59
2019-03-31 10:00:00 9.2 2 Sudeste 5 Oeste 0 953 0.5 65
2019-03-31 09:00:00 5.6 0 Calma 5 Nordeste 0 952.9 0.2 80
2019-03-31 08:00:00 5.5 0 Calma 5 Norte 0 952.5 -0.5 77
2019-03-31 07:00:00 5.9 3 Sudeste 6 Sudeste 0 952.5 -0.9 74
2019-03-31 06:00:00 6.7 0 Calma 7 Este 0 952.7 -1.2 71
2019-03-31 05:00:00 7.9 3 Este 6 Sudoeste 0 953 -1.2 67
2019-03-31 03:00:00 10.8 3 Sur 6 Sudeste 0 953.9 -0.6 58
2019-03-31 01:00:00 11.7 2 Sudeste 6 Sur 0 954.2 -0.2 55
2019-03-31 00:00:00 12.8 2 Noroeste 9 Nordeste 0 954.4 0.2 49
2019-03-30 23:00:00 13.4 6 Este 15 Este 0 954.5 0.6 46
2019-03-30 22:00:00 14.1 6 Este 12 Este 0 954.4 0.7 43
2019-03-30 21:00:00 14.8 3 Nordeste 14 Sudeste 0 954.2 0.4 41
2019-03-30 20:00:00 15.3 9 Sudeste 21 Sudeste 0 953.9 0.2 40
2019-03-30 19:00:00 16.5 7 Sudeste 18 Sudeste 0 953.7 -0.3 39
2019-03-30 18:00:00 16.7 10 Sudeste 23 Este 0 953.8 -0.6 40
2019-03-30 17:00:00 18.1 8 Este 17 Este 0 953.7 -1.8 33
2019-03-30 16:00:00 18.6 3 Sudoeste 16 Sudeste 0 954 -1.8 29
2019-03-30 15:00:00 16.7 5 Sudeste 17 Sudoeste 0 954.4 -2.1 38
2019-03-30 14:00:00 16.8 10 Sur 27 Sur 0 955.5 -1.4 36
2019-03-30 13:00:00 17 5 Sur 11 Sur 0 955.8 -1.4 36
2019-03-30 12:00:00 14.7 5 Sudoeste 13 Sudoeste 0 956.5 -0.8 45
2019-03-30 11:00:00 14.3 5 Oeste 11 Noroeste 0 956.9 -0.1 46
2019-03-30 10:00:00 11.5 5 Oeste 9 Oeste 0 957.2 0.3 56
2019-03-30 09:00:00 9.2 4 Noroeste 6 Sudeste 0 957.3 0.7 66
2019-03-30 08:00:00 8.3 0 Calma 3 Sudoeste 0 957 0.3 67
2019-03-30 07:00:00 8.3 2 Nordeste 6 Oeste 0 956.9 0.1 65
2019-03-30 06:00:00 8.5 3 Noroeste 5 Noroeste 0 956.6 -0.2 63
2019-03-30 05:00:00 8.4 0 Calma 3 Noroeste 0 956.7 -0.2 65
2019-03-30 04:00:00 8.6 3 Noroeste 8 Sur 0 956.8 -0.2 62
2019-03-30 03:00:00 9.3 0 Calma 9 Sur 0 956.8 -0.1 63
2019-03-30 02:00:00 10.1 3 Sur 8 Sur 0 956.9 -0.1 59
2019-03-30 01:00:00 11.5 3 Sudeste 6 Oeste 0 957 0.4 54
2019-03-30 00:00:00 13.5 3 Noroeste 7 Noroeste 0 956.9 0.8 46
2019-03-29 23:00:00 15 4 Oeste 14 Noroeste 0 957 1.5 39
2019-03-29 22:00:00 15.9 5 Oeste 11 Oeste 0 956.6 1.3 34
2019-03-29 21:00:00 16.2 4 Nordeste 8 Oeste 0 956.1 1 35
2019-03-29 20:00:00 19.1 6 Oeste 13 Oeste 0 955.5 0.2 27
2019-03-29 19:00:00 20.9 9 Oeste 17 Noroeste 0 955.3 -0.7 22
2019-03-29 18:00:00 22.6 3 Sudoeste 18 Oeste 0 955.1 -1.9 17
2019-03-29 17:00:00 22.6 4 Oeste 18 Noroeste 0 955.3 -2.6 16
2019-03-29 16:00:00 21.7 10 Noroeste 20 Noroeste 0 956 -2.8 18
2019-03-29 15:00:00 20.8 7 Oeste 21 Oeste 0 957 -2.6 20
2019-03-29 14:00:00 19.5 9 Oeste 17 Oeste 0 957.9 -2.5 22
2019-03-29 13:00:00 17.6 6 Oeste 13 Noroeste 0 958.8 -2.1 29
2019-03-29 12:00:00 15.3 5 Sudoeste 13 Oeste 0 959.6 -1.7 34
2019-03-29 11:00:00 12.2 3 Sudoeste 9 Sudoeste 0 960.4 -1 40
2019-03-29 10:00:00 9.3 4 Oeste 6 Noroeste 0 960.9 -0.3 50
2019-03-29 09:00:00 7 4 Oeste 6 Noroeste 0 961.3 0.2 57
2019-03-29 08:00:00 3.8 2 Este 5 Sudeste 0 961.4 0.5 70
2019-03-29 07:00:00 3.4 4 Sur 6 Sudeste 0 961.2 0 71
2019-03-29 06:00:00 4.1 2 Sudeste 4 Sur 0 961.1 -0.2 67
2019-03-29 05:00:00 5.1 2 Norte 5 Este 0 960.9 -0.7 63
2019-03-29 04:00:00 6.1 2 Este 5 Noroeste 0 961.2 -0.3 59
2019-03-29 03:00:00 7.4 0 Calma 7 Este 0 961.3 -0.4 53
2019-03-29 02:00:00 9.4 0 Calma 8 Oeste 0 961.6 -0.2 45
2019-03-29 01:00:00 12.1 4 Oeste 15 Este 0 961.5 0.1 38
2019-03-29 00:00:00 13.8 8 Este 17 Este 0 961.7 0.7 32
2019-03-28 23:00:00 14.6 9 Este 23 Sudeste 0 961.8 1.6 31
2019-03-28 22:00:00 14.8 7 Este 13 Este 0 961.4 1.5 28
2019-03-28 21:00:00 16.1 2 Sudeste 14 Sudeste 0 961 1.4 26
2019-03-28 20:00:00 18.5 9 Sudeste 25 Sudeste 0 960.2 0.2 20
2019-03-28 19:00:00 21 10 Sudeste 22 Sudeste 0 959.9 -0.8 15
2019-03-28 18:00:00 22 13 Sudeste 24 Sudeste 0 959.6 -1.7 13
2019-03-28 17:00:00 22.3 10 Sudeste 28 Sur 0 960 -2.1 12
2019-03-28 16:00:00 22.4 15 Sudeste 30 Sur 0 960.7 -2.2 12
2019-03-28 15:00:00 22 16 Sudeste 33 Sudeste 0 961.3 -2.4 13
2019-03-28 14:00:00 21.5 16 Sudeste 33 Sudeste 0 962.1 -2.4 14
2019-03-28 13:00:00 20.5 15 Sudeste 31 Sudeste 0 962.9 -2.2 16
2019-03-28 12:00:00 16.1 5 Noroeste 10 Oeste 0 963.7 -1.6 30
2019-03-28 11:00:00 12.9 3 Sur 8 Sudoeste 0 964.5 -0.5 33
2019-03-28 10:00:00 9.2 3 Noroeste 7 Sudoeste 0 965.1 0.6 42
2019-03-28 09:00:00 7.1 3 Sudoeste 6 Noroeste 0 965.3 1.1 48
2019-03-28 08:00:00 3.6 0 Calma 4 Este 0 965 1.3 64
2019-03-28 07:00:00 3.1 3 Este 5 Este 0 964.5 0.8 63
2019-03-28 06:00:00 3.9 0 Calma 5 Este 0 964.2 0.3 61
2019-03-28 05:00:00 5.3 2 Nordeste 5 Norte 0 963.7 0 55
2019-03-28 04:00:00 6.1 3 Este 4 Este 0 963.7 0.1 49
2019-03-28 03:00:00 7.6 0 Calma 5 Sudoeste 0 963.9 0.6 43
2019-03-28 02:00:00 9 2 Noroeste 6 Sur 0 963.7 1 39
2019-03-28 01:00:00 11 3 Sudoeste 13 Este 0 963.6 1.4 31
2019-03-28 00:00:00 12 5 Sudeste 11 Sudeste 0 963.3 1.8 28
2019-03-27 23:00:00 13.8 6 Este 12 Este 0 962.7 2.1 23
2019-03-27 22:00:00 15.7 10 Este 17 Este 0 962.2 2.4 19
2019-03-27 21:00:00 16.5 10 Este 20 Sudeste 0 961.5 2.1 17
2019-03-27 20:00:00 19.1 12 Sudeste 23 Sur 0 960.6 1.2 12
2019-03-27 19:00:00 21.9 12 Sudeste 23 Sudeste 0 959.8 0.2 10
2019-03-27 18:00:00 23.2 11 Sudeste 22 Sur 0 959.4 -0.9 10
2019-03-27 17:00:00 24 9 Sudoeste 28 Sur 0 959.4 -1.6 8
2019-03-27 16:00:00 23.5 13 Sudeste 30 Sudeste 0 959.6 -1.9 7
2019-03-27 15:00:00 22.7 16 Sudeste 33 Sur 0 960.3 -1.6 10
2019-03-27 14:00:00 21.7 18 Sudeste 27 Este 0 961 -1.6 9
2019-03-27 13:00:00 21 15 Sudeste 31 Sudeste 0 961.5 -1.3 8
2019-03-27 12:00:00 19.2 13 Sudeste 31 Sudeste 0 961.9 -1.1 4
2019-03-27 11:00:00 12.3 5 Oeste 10 Oeste 0 962.6 0.1 28
2019-03-27 10:00:00 8.5 4 Oeste 8 Noroeste 0 962.8 0.8 30
2019-03-27 09:00:00 5.3 3 Oeste 6 Oeste 0 963 1.6 35
2019-03-27 08:00:00 1.9 0 Calma 4 Este 0 962.5 1.5 47
2019-03-27 07:00:00 1.5 2 Este 5 Noroeste 0 962 1.2 49
2019-03-27 06:00:00 2.2 0 Calma 5 Este 0 961.4 0.6 46
2019-03-27 05:00:00 3.5 3 Norte 4 Este 0 961 0.3 40
2019-03-27 04:00:00 4.5 3 Este 10 Oeste 0 960.8 0 40
2019-03-27 03:00:00 7.2 6 Noroeste 14 Este 0 960.8 0.2 27
2019-03-27 02:00:00 9.4 10 Este 15 Sudeste 0 960.7 0.4 15
2019-03-27 01:00:00 11.3 9 Este 19 Sudeste 0 960.8 1 11
2019-03-27 00:00:00 10.1 8 Este 13 Sudeste 0 960.6 1.5 14
2019-03-26 23:00:00 9.9 3 Este 9 Este 0 960.3 2.4 17
2019-03-26 22:00:00 13.1 6 Sur 12 Sudeste 0 959.8 2.6 8
2019-03-26 21:00:00 14.4 4 Este 19 Sudeste 0 959.1 2.3 9
2019-03-26 20:00:00 16.6 11 Sudeste 35 Sudeste 0 957.9 1.2 9
2019-03-26 19:00:00 18.9 17 Sudeste 37 Sur 0 957.2 0.2 7
2019-03-26 18:00:00 20.3 23 Sudeste 36 Este 0 956.8 -0.6 8
2019-03-26 17:00:00 21.4 17 Sudeste 38 Sudeste 0 956.7 -1.1 9
2019-03-26 16:00:00 21.2 20 Sudeste 42 Sudeste 0 957 -1.7 6
2019-03-26 15:00:00 21.3 17 Sudeste 42 Sudeste 0 957.4 -1.8 7
2019-03-26 14:00:00 20 17 Sudeste 46 Sudeste 0 957.8 -1.7 10
2019-03-26 13:00:00 17.9 17 Sudeste 39 Sudeste 0 958.7 -0.8 16
2019-03-26 12:00:00 16.5 22 Sudeste 45 Sudeste 0 959.2 -0.3 14
2019-03-26 11:00:00 15.7 21 Sudeste 45 Sudeste 0 959.5 -0.1 15
2019-03-26 10:00:00 9.7 3 Oeste 9 Oeste 0 959.5 0.4 45
2019-03-26 09:00:00 6.3 5 Oeste 8 Oeste 0 959.5 0.5 52
2019-03-26 08:00:00 4.1 0 Calma 5 Norte 0 959.6 0.7 62
2019-03-26 07:00:00 5.6 3 Sudoeste 15 Este 0 959.1 0.1 54
2019-03-26 06:00:00 5.8 4 Oeste 10 Noroeste 0 959 -0.5 52
2019-03-26 05:00:00 7.1 9 Este 17 Este 0 958.9 -1 44
2019-03-26 04:00:00 6.5 6 Noroeste 10 Noroeste 0 959 -1 52
2019-03-26 03:00:00 7.6 3 Oeste 5 Oeste 0 959.5 -0.6 47
2019-03-26 02:00:00 8.6 3 Oeste 11 Este 0 959.9 -0.3 48
2019-03-26 01:00:00 10.2 9 Este 19 Este 0 960 0.5 41
2019-03-26 00:00:00 11.3 10 Este 19 Este 0 960.1 1.2 39
2019-03-25 23:00:00 12.8 11 Sudeste 26 Este 0 960.2 2 36
2019-03-25 22:00:00 13.9 17 Sudeste 37 Sudeste 0 959.5 2.1 29
2019-03-25 21:00:00 14.9 16 Sudeste 31 Sudeste 0 958.9 1.9 26
2019-03-25 20:00:00 16.9 13 Sudeste 35 Sudeste 0 958.2 1 31
2019-03-25 19:00:00 19.6 12 Sudeste 26 Sudeste 0 957.4 -0.2 25
2019-03-25 18:00:00 21 14 Sudeste 27 Sudeste 0 957 -1 22
2019-03-25 17:00:00 21.6 13 Sudeste 28 Sur 0 957.2 -1.9 22
2019-03-25 16:00:00 22.4 12 Sudeste 26 Sudeste 0 957.6 -2.5 16
2019-03-25 15:00:00 22.5 6 Oeste 11 Oeste 0 958 -3.1 20
2019-03-25 14:00:00 20.4 5 Noroeste 12 Noroeste 0 959.1 -2.7 24
2019-03-25 13:00:00 18.3 6 Oeste 13 Oeste 0 960.1 -2.1 31
2019-03-25 12:00:00 15.5 4 Noroeste 10 Noroeste 0 961.1 -1 40
2019-03-25 11:00:00 12.8 5 Oeste 11 Oeste 0 961.8 0 50
2019-03-25 10:00:00 10.7 3 Oeste 8 Oeste 0 962.2 0.7 57
2019-03-25 09:00:00 8.3 3 Sudeste 6 Sudeste 0 962.1 0.7 65
2019-03-25 08:00:00 4.8 2 Este 6 Norte 0 961.8 0.5 79
2019-03-25 07:00:00 5.4 4 Norte 8 Sur 0 961.5 0.1 76
2019-03-25 06:00:00 5.6 3 Sudeste 5 Este 0 961.4 -0.2 76
2019-03-25 05:00:00 6.3 3 Sudeste 5 Sudeste 0 961.3 -0.2 73
2019-03-25 04:00:00 7.2 2 Este 4 Este 0 961.4 -0.1 70
2019-03-25 03:00:00 8.4 0 Calma 6 Sudeste 0 961.6 0.1 65
2019-03-25 02:00:00 9.6 2 Sudeste 7 Noroeste 0 961.5 0.2 61
2019-03-25 01:00:00 10.6 2 Sudeste 8 Este 0 961.5 0.5 57
2019-03-25 00:00:00 12 4 Noroeste 8 Noroeste 0 961.5 1.4 50
2019-03-24 23:00:00 14.2 3 Noroeste 7 Sur 0 961.3 2.2 40
2019-03-24 22:00:00 15.5 4 Este 10 Este 0 961 2.3 40
2019-03-24 21:00:00 16.9 7 Sudeste 21 Este 0 960.1 1.6 40
2019-03-24 20:00:00 19.7 10 Nordeste 18 Nordeste 0 959.1 0.6 35
2019-03-24 19:00:00 21.8 9 Este 20 Nordeste 0 958.7 -0.3 25
2019-03-24 18:00:00 22.8 8 Nordeste 21 Sudeste 0 958.5 -1.3 21
2019-03-24 17:00:00 23.9 9 Sur 21 Sudeste 0 958.5 -2.1 17
2019-03-24 16:00:00 23.9 7 Sur 27 Sudeste 0 959 -2.6 18
2019-03-24 15:00:00 23.5 8 Sudeste 19 Sudeste 0 959.8 -2.7 18
2019-03-24 14:00:00 21.6 7 Oeste 12 Oeste 0 960.6 -2.7 29
2019-03-24 13:00:00 18.6 5 Oeste 12 Noroeste 0 961.6 -1.9 36
2019-03-24 12:00:00 15.4 5 Noroeste 9 Noroeste 0 962.5 -0.9 43
2019-03-24 11:00:00 12.7 4 Oeste 7 Noroeste 0 963.3 0 48
2019-03-24 10:00:00 9.6 3 Sudoeste 9 Noroeste 0 963.5 0.8 58
2019-03-24 09:00:00 7.3 0 Calma 6 Sudeste 0 963.4 0.8 65
2019-03-24 08:00:00 3.9 2 Este 4 Norte 0 963.3 1.1 77
2019-03-24 07:00:00 3.9 2 Sudeste 4 Este 0 962.7 0.7 77
2019-03-24 06:00:00 4.4 0 Calma 5 Este 0 962.6 0.7 73
2019-03-24 05:00:00 4.9 2 Este 4 Norte 0 962.2 0.4 70
2019-03-24 04:00:00 5.8 3 Sudeste 8 Sur 0 962 0.2 66
2019-03-24 03:00:00 6.4 2 Nordeste 4 Sur 0 961.9 0.1 62
2019-03-24 02:00:00 7.7 2 Noroeste 4 Noroeste 0 961.8 0.2 58
2019-03-24 01:00:00 8.5 2 Este 5 Sudeste 0 961.8 0.5 55
2019-03-24 00:00:00 10.4 3 Sur 6 Sur 0 961.8 1 48
2019-03-23 23:00:00 13.2 3 Sur 12 Este 0 961.6 1.5 37
2019-03-23 22:00:00 14.2 8 Este 15 Este 0 961.3 1.7 34
2019-03-23 21:00:00 15 7 Este 13 Este 0 960.8 1.6 33
2019-03-23 20:00:00 17.9 7 Sudeste 16 Sudeste 0 960.1 0.7 28
2019-03-23 19:00:00 20.7 10 Sudeste 19 Este 0 959.6 -0.2 22
2019-03-23 18:00:00 21.8 12 Este 23 Este 0 959.2 -1.2 19
2019-03-23 17:00:00 22.1 8 Este 21 Nordeste 0 959.4 -2.1 21
2019-03-23 16:00:00 22.3 7 Este 22 Este 0 959.8 -2.8 22
2019-03-23 15:00:00 21.6 4 Norte 16 Oeste 0 960.4 -3.1 24
2019-03-23 14:00:00 19.5 4 Oeste 12 Oeste 0 961.5 -2.8 32
2019-03-23 13:00:00 16.3 6 Noroeste 13 Oeste 0 962.6 -2.3 38
2019-03-23 12:00:00 13.6 4 Noroeste 11 Sudoeste 0 963.5 -1.5 42
2019-03-23 11:00:00 10.5 3 Sudoeste 8 Oeste 0 964.3 -0.3 51
2019-03-23 10:00:00 8.2 5 Oeste 7 Oeste 0 964.9 0.4 59
2019-03-23 09:00:00 5.5 0 Calma 6 Noroeste 0 965 0.7 67
2019-03-23 08:00:00 2.1 3 Sudeste 5 Este 0 964.6 0.5 83
2019-03-23 07:00:00 2.3 2 Este 4 Este 0 964.5 0.3 78
2019-03-23 06:00:00 3.2 0 Calma 4 Norte 0 964.3 0 74
2019-03-23 05:00:00 3.6 3 Sudeste 5 Sur 0 964.1 0 74
2019-03-23 04:00:00 4.4 2 Nordeste 4 Este 0 964.2 0.5 70
2019-03-23 03:00:00 5.1 3 Este 4 Sudeste 0 964.3 0.6 67
2019-03-23 02:00:00 6.3 0 Calma 5 Este 0 964.1 0.5 61
2019-03-23 01:00:00 7.9 0 Calma 4 Este 0 963.7 0.7 55
2019-03-23 00:00:00 9.9 2 Sudeste 6 Oeste 0 963.7 1.2 49
2019-03-22 23:00:00 12.2 3 Sur 14 Sudeste 0 963.6 1.8 40
2019-03-22 22:00:00 13 7 Sudeste 15 Nordeste 0 963 1.7 38
2019-03-22 21:00:00 13.7 5 Sudeste 18 Sudeste 0 962.5 1.5 38
2019-03-22 20:00:00 16 8 Sudeste 14 Sudeste 0 961.8 0.4 33
2019-03-22 19:00:00 20.1 4 Oeste 12 Noroeste 0 961.3 -0.8 21
2019-03-22 18:00:00 20.5 5 Noroeste 11 Oeste 0 961 -1.6 20
2019-03-22 17:00:00 20.4 4 Sudoeste 12 Noroeste 0 961.4 -1.9 21
2019-03-22 16:00:00 19.7 5 Noroeste 14 Noroeste 0 962.1 -2.1 20
2019-03-22 15:00:00 18.8 6 Oeste 14 Oeste 0 962.6 -2.2 22
2019-03-22 14:00:00 17.3 6 Noroeste 13 Oeste 0 963.3 -2 24
2019-03-22 13:00:00 15.2 5 Norte 12 Norte 0 964.2 -1.3 34
2019-03-22 12:00:00 12.7 5 Oeste 10 Oeste 0 964.8 -0.6 43
2019-03-22 11:00:00 10.1 6 Oeste 11 Oeste 0 965.3 0.3 51
2019-03-22 10:00:00 8.1 4 Sur 8 Sudoeste 0 965.5 1 55
2019-03-22 09:00:00 5.1 0 Calma 5 Oeste 0 965.4 1.4 67
2019-03-22 08:00:00 2.1 0 Calma 3 Este 0 965 1.1 80
2019-03-22 07:00:00 2.3 4 Este 6 Este 0 964.5 0.8 76
2019-03-22 06:00:00 3.2 0 Calma 3 Noroeste 0 964 0.4 73
2019-03-22 05:00:00 3.9 0 Calma 6 Sur 0 963.9 0.4 70
2019-03-22 04:00:00 4.7 3 Sudeste 5 Sur 0 963.7 0.5 66
2019-03-22 03:00:00 5.6 3 Este 6 Este 0 963.6 0.7 62
2019-03-22 02:00:00 7.4 2 Nordeste 5 Sur 0 963.5 1.1 53
2019-03-22 01:00:00 9.6 3 Sur 12 Este 0 963.2 1.2 44
2019-03-22 00:00:00 10.9 5 Sudeste 20 Este 0 962.9 1.7 40
2019-03-21 23:00:00 11.3 9 Este 16 Este 0 962.4 2 37
2019-03-21 22:00:00 12.4 7 Sudeste 18 Sudeste 0 962 1.8 33
2019-03-21 21:00:00 12.9 8 Este 18 Sudeste 0 961.2 1.1 31
2019-03-21 20:00:00 15.7 9 Sudeste 17 Sudeste 0 960.4 -0.1 27
2019-03-21 19:00:00 19.8 4 Oeste 11 Oeste 0 960.2 -1.2 16
2019-03-21 18:00:00 20 8 Oeste 12 Sudoeste 0 960.1 -2.1 14
2019-03-21 17:00:00 19.9 4 Sudoeste 13 Sudeste 0 960.5 -2.7 15
2019-03-21 16:00:00 19.7 6 Noroeste 18 Oeste 0 961.4 -2.6 14
2019-03-21 15:00:00 18.8 7 Noroeste 15 Noroeste 0 962.2 -2.5 17
2019-03-21 14:00:00 17.6 6 Oeste 18 Oeste 0 963.2 -2.1 17
2019-03-21 13:00:00 15.7 10 Oeste 18 Oeste 0 964 -1.8 25
2019-03-21 12:00:00 13.6 8 Oeste 16 Oeste 0 964.7 -1.5 34
2019-03-21 11:00:00 10.6 7 Oeste 14 Sudoeste 0 965.3 -0.9 40
2019-03-21 10:00:00 8.6 4 Noroeste 9 Oeste 0 965.8 -0.1 40
2019-03-21 09:00:00 7 2 Sudeste 5 Sudeste 0 966.2 0.6 46
2019-03-21 08:00:00 3.8 3 Sur 8 Oeste 0 966.2 0.8 68
2019-03-21 07:00:00 5 4 Oeste 13 Este 0 965.9 0.5 63
2019-03-21 06:00:00 5.5 3 Sudeste 12 Este 0 965.6 0.4 56
2019-03-21 05:00:00 6.1 2 Noroeste 17 Este 0 965.4 0.3 55
2019-03-21 04:00:00 6.9 6 Este 13 Este 0 965.4 0.4 38
2019-03-21 03:00:00 7 6 Sudeste 10 Sudeste 0 965.2 0.6 41
2019-03-21 02:00:00 7.7 5 Sur 9 Sur 0 965.1 0.7 49
2019-03-21 01:00:00 8.7 3 Noroeste 17 Este 0 965 0.8 47
2019-03-21 00:00:00 10.2 11 Este 26 Este 0 964.6 0.7 41